Time;durP1;ratioP1;P1;durP2;ratioP2;P2;SDS_P1;SDS_P2;PMS_P1;PMS_P2;Temp;Humidity;BMP_temperature;BMP_pressure;BME280_temperature;BME280_humidity;BME280_pressure;Samples;Min_cycle;Max_cycle;Signal;HPM_P1;HPM_P2
2023/08/27 06:56:11;;;;;;;1.70;0.80;;;;;;;28.49;73.43;99856.38;5094399;27;1352096;-70
2023/08/27 06:58:37;;;;;;;0.82;0.82;;;;;;;28.88;72.45;99866.38;5109459;28;20193;-69
2023/08/27 07:01:05;;;;;;;1.00;1.00;;;;;;;29.25;65.69;99859.50;5109377;28;20197;-71
2023/08/27 07:03:32;;;;;;;0.75;0.75;;;;;;;29.41;67.24;99864.75;5109412;28;20201;-73
2023/08/27 07:05:59;;;;;;;0.70;0.70;;;;;;;29.57;60.13;99862.78;5108976;28;20239;-71
2023/08/27 07:08:26;;;;;;;0.55;0.55;;;;;;;29.78;60.42;99861.34;5108962;28;20215;-72
2023/08/27 07:10:53;;;;;;;0.60;0.60;;;;;;;29.90;53.59;99863.22;5109299;28;20197;-71
2023/08/27 07:13:21;;;;;;;1.15;0.90;;;;;;;29.92;54.77;99837.22;5108893;28;20201;-72
2023/08/27 07:15:48;;;;;;;0.80;0.80;;;;;;;30.30;53.23;99868.50;5109090;28;20197;-71
2023/08/27 07:18:15;;;;;;;0.60;0.60;;;;;;;30.48;51.43;99867.22;5056618;28;20200;-70
2023/08/27 07:20:42;;;;;;;1.33;0.90;;;;;;;30.67;50.01;99856.94;5108734;28;20199;-71
2023/08/27 07:23:08;;;;;;;1.17;0.80;;;;;;;30.80;51.24;99862.25;5108894;28;20657;-70
2023/08/27 07:25:36;;;;;;;2.63;1.13;;;;;;;30.79;48.20;99871.25;5108726;28;20905;-71
2023/08/27 07:28:04;;;;;;;0.88;0.88;;;;;;;30.89;50.01;99870.47;5108771;28;20197;-69
2023/08/27 07:30:32;;;;;;;0.88;0.88;;;;;;;30.92;49.71;99872.09;5073019;28;20197;-70
2023/08/27 07:32:59;;;;;;;0.98;0.93;;;;;;;30.89;52.15;99870.47;5108732;28;20203;-72
2023/08/27 07:35:26;;;;;;;0.95;0.95;;;;;;;30.95;49.44;99861.16;5108492;28;20192;-73
2023/08/27 07:37:53;;;;;;;0.95;0.88;;;;;;;31.10;48.73;99853.88;5108851;28;20673;-70
2023/08/27 07:40:20;;;;;;;0.98;0.95;;;;;;;31.24;47.60;99856.41;5108436;28;20702;-70
2023/08/27 07:42:46;;;;;;;0.80;0.80;;;;;;;31.39;47.47;99860.63;5108430;28;20672;-70
2023/08/27 07:45:13;;;;;;;0.90;0.80;;;;;;;31.43;46.84;99857.56;5108202;28;20221;-69
2023/08/27 07:47:41;;;;;;;0.60;0.60;;;;;;;31.32;45.47;99840.59;5108666;28;20205;-70
2023/08/27 07:50:09;;;;;;;1.35;1.25;;;;;;;31.43;46.45;99862.94;5108366;28;20205;-71
2023/08/27 07:52:35;;;;;;;0.85;0.85;;;;;;;31.51;46.89;99864.19;5072758;28;20192;-71
2023/08/27 07:55:03;;;;;;;0.75;0.75;;;;;;;31.69;44.89;99863.69;5108329;28;20208;-71
2023/08/27 07:57:29;;;;;;;1.63;1.52;;;;;;;31.79;44.22;99870.06;5108571;28;20785;-73
2023/08/27 07:59:56;;;;;;;0.63;0.63;;;;;;;31.64;44.76;99843.59;5108232;28;20631;-73
2023/08/27 08:02:23;;;;;;;1.35;1.35;;;;;;;31.75;44.94;99851.69;5107959;28;20685;-70
2023/08/27 08:04:51;;;;;;;0.82;0.82;;;;;;;31.87;44.61;99866.81;5108047;28;20720;-70
2023/08/27 08:07:18;;;;;;;0.50;0.50;;;;;;;31.88;41.67;99864.03;5095802;28;20198;-69
2023/08/27 08:09:45;;;;;;;1.55;1.00;;;;;;;31.83;42.62;99866.19;5094590;28;20242;-69
2023/08/27 08:12:12;;;;;;;6.50;1.35;;;;;;;31.89;40.50;99862.22;5094476;28;20193;-69
2023/08/27 08:14:39;;;;;;;0.77;0.77;;;;;;;31.94;41.35;99855.50;5094333;28;20233;-68
2023/08/27 08:17:06;;;;;;;0.60;0.60;;;;;;;31.64;39.77;99788.13;5042269;28;20198;-69
2023/08/27 08:19:32;;;;;;;1.13;1.13;;;;;;;32.01;39.36;99868.44;5042496;28;20189;-69
2023/08/27 08:22:00;;;;;;;0.65;0.65;;;;;;;31.56;39.57;99782.50;5094208;28;20274;-70
2023/08/27 08:24:27;;;;;;;0.68;0.68;;;;;;;32.15;38.98;99863.75;5093947;28;20204;-70
2023/08/27 08:26:54;;;;;;;0.98;0.95;;;;;;;32.32;39.41;99863.28;5094028;28;20692;-70
2023/08/27 08:29:22;;;;;;;0.80;0.80;;;;;;;32.26;40.84;99830.69;5094097;28;20326;-69
2023/08/27 08:31:49;;;;;;;0.77;0.77;;;;;;;32.39;40.10;99853.78;5093851;28;20197;-69
2023/08/27 08:34:15;;;;;;;0.90;0.90;;;;;;;32.20;40.66;99837.44;5093856;28;20205;-71
2023/08/27 08:36:42;;;;;;;0.60;0.60;;;;;;;32.35;40.81;99852.34;5093933;28;20201;-70
2023/08/27 08:39:10;;;;;;;0.77;0.77;;;;;;;32.31;38.99;99850.00;5093785;28;20201;-70
2023/08/27 08:41:41;;;;;;;0.85;0.85;;;;;;;32.21;38.90;99855.25;5093880;28;20201;-67
2023/08/27 08:44:13;;;;;;;1.25;1.17;;;;;;;32.00;38.45;99831.88;5093489;28;20232;-67
2023/08/27 08:46:43;;;;;;;1.80;1.20;;;;;;;32.03;38.18;99851.28;5093755;28;20313;-69
2023/08/27 08:49:16;;;;;;;0.70;0.70;;;;;;;31.98;38.21;99831.13;5093556;28;20208;-72
2023/08/27 08:51:43;;;;;;;1.10;0.80;;;;;;;31.99;37.64;99824.78;5093707;28;20198;-68
2023/08/27 08:54:15;;;;;;;1.40;1.30;;;;;;;32.34;38.17;99850.63;5092523;28;20205;-70
2023/08/27 08:56:48;;;;;;;0.70;0.70;;;;;;;32.54;38.96;99849.03;5090850;28;20264;-69
2023/08/27 08:59:15;;;;;;;0.70;0.70;;;;;;;32.57;38.07;99840.72;5091843;28;20708;-68
2023/08/27 09:01:43;;;;;;;0.65;0.65;;;;;;;32.56;36.21;99836.34;5080415;28;20634;-71
2023/08/27 09:04:11;;;;;;;1.40;1.27;;;;;;;32.63;37.64;99840.28;5092831;28;20570;-72
2023/08/27 09:06:39;;;;;;;1.15;1.08;;;;;;;32.69;37.46;99831.72;5092921;28;20313;-72
2023/08/27 09:09:06;;;;;;;0.95;0.95;;;;;;;32.73;37.54;99835.88;5092813;28;20285;-72
2023/08/27 09:11:36;;;;;;;0.93;0.93;;;;;;;32.38;36.25;99776.06;5092716;28;20205;-72
2023/08/27 09:14:04;;;;;;;1.98;1.02;;;;;;;32.72;36.01;99836.00;5092999;28;20213;-72
2023/08/27 09:16:31;;;;;;;0.52;0.52;;;;;;;32.72;36.14;99828.78;5092839;28;20224;-69
2023/08/27 09:18:58;;;;;;;0.98;0.82;;;;;;;32.86;37.12;99825.84;5091777;28;20284;-69
2023/08/27 09:21:25;;;;;;;0.70;0.70;;;;;;;32.97;36.50;99821.41;5092512;28;20202;-68
2023/08/27 09:23:54;;;;;;;0.80;0.80;;;;;;;33.00;36.50;99819.34;5092513;28;20636;-67
2023/08/27 09:26:21;;;;;;;0.93;0.85;;;;;;;33.00;36.91;99816.66;5092867;28;20225;-67
2023/08/27 09:28:51;;;;;;;0.68;0.68;;;;;;;33.11;37.02;99819.34;5092753;28;20196;-71
2023/08/27 09:31:36;;;;;;;0.63;0.63;;;;;;;33.04;36.95;99817.25;5092522;28;20700;-68
2023/08/27 09:34:03;;;;;;;1.58;0.85;;;;;;;33.14;38.43;99820.94;5078732;28;20205;-66
2023/08/27 09:36:31;;;;;;;1.55;0.90;;;;;;;33.31;38.09;99815.03;5092442;28;20244;-71
2023/08/27 09:38:58;;;;;;;0.80;0.80;;;;;;;33.46;38.11;99819.13;5092640;28;20210;-67
2023/08/27 09:41:30;;;;;;;0.57;0.57;;;;;;;33.50;37.86;99825.94;5092420;28;20197;-68
2023/08/27 09:43:58;;;;;;;0.77;0.77;;;;;;;33.46;37.86;99826.34;5092464;28;20285;-67
2023/08/27 09:46:25;;;;;;;0.60;0.60;;;;;;;33.51;37.20;99824.97;5092414;28;20282;-67
2023/08/27 09:48:59;;;;;;;0.63;0.55;;;;;;;33.55;36.71;99825.56;5092467;28;20594;-67
2023/08/27 09:51:28;;;;;;;0.73;0.73;;;;;;;33.50;35.69;99812.47;5092456;28;20205;-68
2023/08/27 09:53:55;;;;;;;1.10;0.80;;;;;;;33.42;35.86;99823.06;5092339;28;20229;-67
2023/08/27 09:56:24;;;;;;;0.90;0.90;;;;;;;33.54;35.86;99816.63;5092486;28;20723;-68
2023/08/27 09:58:51;;;;;;;1.27;1.15;;;;;;;33.40;35.86;99825.00;5092305;28;20236;-66
2023/08/27 10:01:20;;;;;;;0.60;0.60;;;;;;;33.57;35.74;99821.75;5092249;28;20202;-67
2023/08/27 10:03:47;;;;;;;0.60;0.60;;;;;;;33.71;36.23;99820.63;5092487;28;20197;-68
2023/08/27 10:06:14;;;;;;;0.93;0.93;;;;;;;33.68;35.97;99802.91;5092283;28;20229;-68
2023/08/27 10:08:50;;;;;;;0.60;0.60;;;;;;;33.87;36.39;99810.25;5092083;28;20715;-68
2023/08/27 10:11:17;;;;;;;0.65;0.65;;;;;;;33.79;35.17;99810.03;5092081;28;20683;-68
2023/08/27 10:13:45;;;;;;;0.60;0.60;;;;;;;33.85;35.43;99806.84;5092136;28;20205;-67
2023/08/27 10:16:13;;;;;;;0.70;0.70;;;;;;;33.97;36.36;99811.16;5092240;28;20212;-67
2023/08/27 10:18:41;;;;;;;0.68;0.68;;;;;;;34.12;35.52;99806.28;5056940;28;20642;-67
2023/08/27 10:21:10;;;;;;;0.57;0.57;;;;;;;34.17;35.14;99809.50;5092120;28;20197;-68
2023/08/27 10:23:40;;;;;;;0.68;0.68;;;;;;;34.09;35.75;99790.41;5091738;28;20273;-68
2023/08/27 10:26:07;;;;;;;0.60;0.60;;;;;;;33.99;35.58;99789.53;5091743;28;20220;-68
2023/08/27 10:28:35;;;;;;;0.70;0.70;;;;;;;34.15;35.28;99789.91;5091679;28;20634;-67
2023/08/27 10:31:02;;;;;;;0.65;0.65;;;;;;;34.14;34.12;99790.91;5091929;28;20197;-68
2023/08/27 10:33:29;;;;;;;0.70;0.70;;;;;;;34.06;34.00;99785.31;5091885;28;20695;-67
2023/08/27 10:36:01;;;;;;;1.08;1.02;;;;;;;34.13;34.12;99775.75;5091935;28;20258;-67
2023/08/27 10:38:29;;;;;;;0.68;0.68;;;;;;;34.18;34.24;99773.47;5091584;28;20205;-67
2023/08/27 10:40:56;;;;;;;0.60;0.60;;;;;;;34.01;34.08;99771.38;5091690;28;20700;-67
2023/08/27 10:43:23;;;;;;;0.85;0.80;;;;;;;34.09;34.04;99767.06;5091844;28;20201;-67
2023/08/27 10:45:51;;;;;;;0.63;0.63;;;;;;;34.20;34.21;99772.38;5091471;28;20785;-68
2023/08/27 10:48:30;;;;;;;0.75;0.70;;;;;;;34.07;33.39;99766.31;5091672;28;20280;-68
2023/08/27 10:51:11;;;;;;;1.17;0.93;;;;;;;33.92;32.58;99734.53;5091442;28;20270;-68
2023/08/27 10:53:42;;;;;;;0.80;0.80;;;;;;;34.07;32.66;99755.56;5091289;28;20621;-67
2023/08/27 10:56:29;;;;;;;0.50;0.50;;;;;;;34.13;33.64;99749.69;5091769;28;20252;-67
2023/08/27 10:58:59;;;;;;;1.00;1.00;;;;;;;34.15;33.75;99749.53;5091724;28;20202;-66
2023/08/27 11:01:26;;;;;;;0.80;0.80;;;;;;;34.17;33.04;99751.13;5089896;28;20197;-67
2023/08/27 11:04:00;;;;;;;0.73;0.73;;;;;;;34.24;33.26;99725.38;5091097;28;20212;-68
2023/08/27 11:06:46;;;;;;;1.05;1.05;;;;;;;34.52;33.76;99734.53;5091221;28;20332;-68
2023/08/27 11:09:21;;;;;;;0.60;0.60;;;;;;;34.60;33.29;99721.22;5091460;28;20193;-68
2023/08/27 11:11:52;;;;;;;0.60;0.60;;;;;;;34.73;33.09;99737.16;5091364;28;20375;-67
2023/08/27 11:14:20;;;;;;;0.98;0.98;;;;;;;34.71;33.20;99729.19;5091350;28;20197;-68
2023/08/27 11:16:49;;;;;;;0.60;0.60;;;;;;;34.73;33.70;99720.97;5091440;28;20330;-68
2023/08/27 11:19:26;;;;;;;0.55;0.55;;;;;;;34.85;33.27;99730.66;5091122;28;20699;-68
2023/08/27 11:22:05;;;;;;;0.80;0.80;;;;;;;34.68;32.93;99726.78;5091135;28;20250;-68
2023/08/27 11:24:32;;;;;;;0.70;0.70;;;;;;;34.35;33.35;99695.63;5091132;28;20330;-68
2023/08/27 11:27:02;;;;;;;0.80;0.80;;;;;;;34.52;32.51;99723.75;5091335;28;20232;-68
2023/08/27 11:29:30;;;;;;;0.60;0.60;;;;;;;34.53;32.64;99713.84;5091083;28;20197;-68
2023/08/27 11:32:00;;;;;;;0.70;0.70;;;;;;;34.58;33.02;99701.63;5091047;28;20637;-67
2023/08/27 11:34:33;;;;;;;0.63;0.63;;;;;;;34.55;32.72;99707.31;5091209;28;20201;-67
2023/08/27 11:37:03;;;;;;;0.70;0.70;;;;;;;34.62;32.29;99686.94;5091107;28;20240;-67
2023/08/27 11:39:31;;;;;;;0.50;0.50;;;;;;;34.85;32.14;99709.94;5091291;28;20198;-67
2023/08/27 11:41:57;;;;;;;0.60;0.60;;;;;;;34.92;31.25;99704.84;5093433;28;20232;-67
2023/08/27 11:44:24;;;;;;;0.63;0.63;;;;;;;34.96;32.33;99700.03;5094730;28;20624;-69
2023/08/27 11:46:52;;;;;;;0.60;0.60;;;;;;;34.96;31.05;99697.34;5042644;28;20724;-67
2023/08/27 11:49:29;;;;;;;0.60;0.60;;;;;;;35.05;31.18;99683.00;5094723;28;20297;-67
2023/08/27 11:51:57;;;;;;;0.70;0.70;;;;;;;35.01;32.04;99682.44;5094770;28;20251;-68
2023/08/27 11:54:30;;;;;;;0.60;0.60;;;;;;;35.13;31.39;99680.47;5095047;28;20658;-68
2023/08/27 11:56:57;;;;;;;0.60;0.60;;;;;;;35.09;31.38;99679.03;5094727;28;20237;-67
2023/08/27 11:59:27;;;;;;;0.75;0.70;;;;;;;35.09;31.96;99658.31;5094631;28;20208;-67
2023/08/27 12:01:54;;;;;;;0.60;0.60;;;;;;;35.23;31.79;99666.00;5094603;28;20652;-67
2023/08/27 12:04:22;;;;;;;0.50;0.50;;;;;;;35.38;32.17;99677.19;5094519;28;20550;-67
2023/08/27 12:06:52;;;;;;;0.60;0.60;;;;;;;35.40;31.36;99683.28;5094673;28;20221;-67
2023/08/27 12:09:28;;;;;;;0.68;0.68;;;;;;;35.13;32.58;99675.09;5094547;28;20233;-67
2023/08/27 12:11:55;;;;;;;0.55;0.55;;;;;;;35.15;31.95;99678.47;5094386;28;20291;-67
2023/08/27 12:14:25;;;;;;;0.65;0.65;;;;;;;35.19;31.81;99669.13;5094370;28;20208;-67
2023/08/27 12:16:52;;;;;;;0.60;0.60;;;;;;;35.28;31.47;99673.66;5094741;28;20193;-68
2023/08/27 12:19:20;;;;;;;0.60;0.60;;;;;;;35.31;31.66;99667.97;5094115;28;20254;-67
2023/08/27 12:21:48;;;;;;;0.70;0.70;;;;;;;35.38;32.02;99658.31;5094279;28;20193;-67
2023/08/27 12:24:31;;;;;;;0.75;0.75;;;;;;;35.45;32.22;99656.72;5094206;28;20201;-66
2023/08/27 12:27:01;;;;;;;0.93;0.93;;;;;;;35.42;31.54;99661.56;5041840;28;20776;-65
2023/08/27 12:29:29;;;;;;;0.60;0.60;;;;;;;35.13;31.75;99615.78;5094110;28;20285;-67
2023/08/27 12:31:56;;;;;;;0.68;0.68;;;;;;;35.49;31.80;99650.06;5094209;28;20237;-68
2023/08/27 12:34:34;;;;;;;0.50;0.50;;;;;;;35.47;31.46;99662.81;5094036;28;20203;-68
2023/08/27 12:37:01;;;;;;;0.60;0.60;;;;;;;35.36;31.20;99636.00;5094136;28;20236;-67
2023/08/27 12:39:29;;;;;;;0.70;0.70;;;;;;;35.46;31.89;99650.31;5058660;28;20637;-67
2023/08/27 12:41:55;;;;;;;0.60;0.60;;;;;;;35.39;32.60;99646.50;5088165;28;20209;-69
2023/08/27 12:44:22;;;;;;;0.70;0.70;;;;;;;35.59;32.11;99644.63;5073545;28;20194;-66
2023/08/27 12:46:49;;;;;;;0.60;0.60;;;;;;;35.67;31.47;99636.69;5073395;28;20229;-67
2023/08/27 12:49:16;;;;;;;0.65;0.65;;;;;;;35.68;31.09;99641.91;5073676;28;20251;-67
2023/08/27 12:51:44;;;;;;;0.57;0.57;;;;;;;35.53;31.99;99621.75;5076122;28;20221;-67
2023/08/27 12:54:11;;;;;;;0.50;0.50;;;;;;;35.76;32.44;99633.94;5092265;28;20198;-71
2023/08/27 12:56:39;;;;;;;0.60;0.60;;;;;;;35.91;32.19;99631.59;5078173;28;20222;-67
2023/08/27 12:59:05;;;;;;;0.50;0.50;;;;;;;35.84;30.81;99635.91;5088696;28;20205;-68
2023/08/27 13:01:32;;;;;;;0.70;0.70;;;;;;;35.82;30.75;99629.78;5079199;28;20209;-68
2023/08/27 13:03:59;;;;;;;0.60;0.60;;;;;;;35.58;30.41;99630.28;5073121;28;20215;-68
2023/08/27 13:06:28;;;;;;;0.50;0.50;;;;;;;35.58;30.08;99611.41;5039624;28;20229;-69
2023/08/27 13:08:55;;;;;;;1.05;1.05;;;;;;;35.65;30.82;99590.94;5090496;28;20190;-68
2023/08/27 13:11:22;;;;;;;0.55;0.55;;;;;;;35.91;31.09;99622.66;5085512;28;20206;-68
2023/08/27 13:13:50;;;;;;;0.60;0.60;;;;;;;35.77;29.65;99622.16;5082243;28;20197;-68
2023/08/27 13:16:17;;;;;;;0.82;0.82;;;;;;;35.74;30.50;99608.97;5083562;28;20679;-68
2023/08/27 13:18:44;;;;;;;1.70;1.63;;;;;;;35.71;30.56;99614.63;5083479;28;20735;-67
2023/08/27 13:21:11;;;;;;;0.80;0.80;;;;;;;35.77;30.47;99607.81;5090198;28;20197;-67
2023/08/27 13:23:38;;;;;;;0.77;0.77;;;;;;;35.78;30.18;99607.63;5092131;28;20197;-69
2023/08/27 13:26:05;;;;;;;0.60;0.60;;;;;;;35.62;29.85;99604.75;5089776;28;20205;-68
2023/08/27 13:28:31;;;;;;;0.70;0.70;;;;;;;35.58;29.68;99605.13;5084651;28;20186;-68
2023/08/27 13:31:00;;;;;;;0.73;0.73;;;;;;;35.66;29.28;99608.84;5091344;28;20189;-68
2023/08/27 13:33:27;;;;;;;0.60;0.60;;;;;;;35.66;29.69;99608.84;5086878;28;20193;-67
2023/08/27 13:35:53;;;;;;;0.68;0.68;;;;;;;35.62;29.46;99601.19;5091264;28;20198;-68
2023/08/27 13:38:20;;;;;;;0.80;0.80;;;;;;;35.74;29.38;99603.56;5089717;28;20705;-67
2023/08/27 13:40:47;;;;;;;0.80;0.80;;;;;;;35.95;29.19;99607.88;5083536;28;20570;-68
2023/08/27 13:43:14;;;;;;;0.60;0.60;;;;;;;35.92;28.60;99602.78;5092333;28;20285;-68
2023/08/27 13:45:41;;;;;;;0.57;0.57;;;;;;;35.89;28.58;99603.06;5085562;28;20201;-68
2023/08/27 13:48:09;;;;;;;0.70;0.70;;;;;;;36.04;29.51;99602.41;5089202;28;20233;-69
2023/08/27 13:50:36;;;;;;;0.77;0.77;;;;;;;35.85;29.40;99596.28;5032537;28;20197;-69
2023/08/27 13:53:03;;;;;;;0.60;0.60;;;;;;;35.81;30.29;99595.72;5090338;28;20201;-68
2023/08/27 13:55:29;;;;;;;0.60;0.60;;;;;;;35.71;29.49;99606.53;5091504;28;20210;-68
2023/08/27 13:57:57;;;;;;;0.70;0.70;;;;;;;35.82;31.01;99600.09;5090101;28;20205;-67
2023/08/27 14:00:24;;;;;;;0.60;0.60;;;;;;;35.96;29.95;99596.06;5090447;28;20216;-68
2023/08/27 14:02:50;;;;;;;0.73;0.73;;;;;;;36.01;28.99;99591.06;5090094;28;20197;-69
2023/08/27 14:05:18;;;;;;;1.85;1.05;;;;;;;35.95;29.77;99597.06;5089465;28;20220;-69
2023/08/27 14:07:45;;;;;;;0.60;0.60;;;;;;;35.98;29.68;99596.75;5050828;28;20222;-69
2023/08/27 14:10:12;;;;;;;0.50;0.50;;;;;;;35.94;30.02;99580.00;5088627;28;20212;-68
2023/08/27 14:12:39;;;;;;;0.60;0.60;;;;;;;36.13;29.51;99589.88;5085498;28;20623;-69
2023/08/27 14:15:06;;;;;;;0.50;0.50;;;;;;;36.19;29.75;99589.28;5090958;28;20198;-69
2023/08/27 14:17:33;;;;;;;0.50;0.50;;;;;;;36.18;29.71;99587.56;5090397;28;20204;-69
2023/08/27 14:20:00;;;;;;;0.55;0.55;;;;;;;36.10;29.54;99585.63;5089925;28;20202;-68
2023/08/27 14:22:28;;;;;;;0.70;0.70;;;;;;;36.04;29.41;99566.44;5090594;28;20197;-69
2023/08/27 14:24:55;;;;;;;0.73;0.73;;;;;;;35.92;29.55;99582.03;5083987;28;20217;-69
2023/08/27 14:27:22;;;;;;;0.55;0.55;;;;;;;35.77;29.97;99578.97;5087886;28;20221;-67
2023/08/27 14:29:48;;;;;;;0.50;0.50;;;;;;;35.64;30.25;99556.88;5090302;28;20202;-67
2023/08/27 14:32:15;;;;;;;0.70;0.70;;;;;;;35.93;30.50;99582.84;5084826;28;20603;-67
2023/08/27 14:34:42;;;;;;;0.50;0.50;;;;;;;35.70;30.02;99553.59;5083679;28;20550;-68
2023/08/27 14:37:09;;;;;;;0.50;0.50;;;;;;;35.84;30.42;99572.97;5081567;28;20205;-67
2023/08/27 14:39:37;;;;;;;0.60;0.60;;;;;;;35.71;30.02;99568.75;5080289;28;20198;-66
2023/08/27 14:42:05;;;;;;;0.60;0.60;;;;;;;35.35;29.99;99550.72;5082355;28;20276;-68
2023/08/27 14:44:32;;;;;;;0.50;0.50;;;;;;;35.54;30.15;99561.44;5083621;28;20682;-67
2023/08/27 14:46:59;;;;;;;0.60;0.60;;;;;;;35.54;29.79;99539.00;5081041;28;20221;-71
2023/08/27 14:49:25;;;;;;;1.30;0.90;;;;;;;35.69;29.58;99564.53;5078937;28;20677;-69
2023/08/27 14:51:52;;;;;;;1.20;1.10;;;;;;;35.78;30.02;99564.47;5090632;28;20224;-68
2023/08/27 14:54:19;;;;;;;0.70;0.70;;;;;;;35.77;29.62;99560.09;5083711;28;20255;-68
2023/08/27 14:56:47;;;;;;;0.93;0.93;;;;;;;35.80;29.89;99557.09;5081521;28;20291;-68
2023/08/27 14:59:40;;;;;;;0.90;0.90;;;;;;;35.78;29.38;99556.38;5080257;28;20213;-69
2023/08/27 15:02:07;;;;;;;0.80;0.80;;;;;;;35.55;30.12;99544.25;5080311;28;20207;-68
2023/08/27 15:04:34;;;;;;;0.50;0.50;;;;;;;35.65;29.77;99542.38;5085370;28;20229;-67
2023/08/27 15:07:03;;;;;;;0.70;0.70;;;;;;;35.67;29.46;99559.28;5084087;28;20690;-68
2023/08/27 15:09:30;;;;;;;0.80;0.80;;;;;;;35.68;29.70;99560.97;5087679;28;20669;-68
2023/08/27 15:11:58;;;;;;;1.55;1.45;;;;;;;35.65;29.71;99542.38;5082738;28;20235;-68
2023/08/27 15:14:25;;;;;;;0.73;0.73;;;;;;;35.55;29.67;99536.16;5081472;28;20198;-70
2023/08/27 15:16:53;;;;;;;0.60;0.60;;;;;;;35.75;29.88;99548.56;5090103;28;20193;-68
2023/08/27 15:19:20;;;;;;;0.93;0.93;;;;;;;36.30;29.56;99543.16;5088379;28;20203;-69
2023/08/27 15:21:47;;;;;;;0.63;0.63;;;;;;;37.01;28.65;99556.63;5092929;28;20200;-69
2023/08/27 15:24:14;;;;;;;0.93;0.93;;;;;;;38.73;26.59;99556.19;5093286;28;20212;-68
2023/08/27 15:26:41;;;;;;;0.60;0.60;;;;;;;39.54;26.61;99554.22;5090782;28;20201;-69
2023/08/27 15:29:09;;;;;;;1.08;0.98;;;;;;;39.63;25.89;99485.28;5041961;28;20689;-66
2023/08/27 15:31:36;;;;;;;0.77;0.77;;;;;;;40.10;25.21;99563.13;5087826;28;20202;-67
2023/08/27 15:34:05;;;;;;;0.77;0.77;;;;;;;40.79;24.93;99564.06;5092419;28;20676;-67
2023/08/27 15:36:32;;;;;;;0.60;0.60;;;;;;;42.11;24.05;99577.81;5086488;28;20208;-68
2023/08/27 15:38:59;;;;;;;0.60;0.60;;;;;;;42.46;22.94;99566.06;5088077;28;20237;-68
2023/08/27 15:41:25;;;;;;;0.50;0.50;;;;;;;43.04;22.76;99573.16;5089147;28;20206;-69
2023/08/27 15:43:52;;;;;;;1.00;0.85;;;;;;;43.64;22.94;99568.97;5085414;28;20677;-67
2023/08/27 15:46:21;;;;;;;0.70;0.70;;;;;;;43.10;22.71;99574.25;5087417;28;20689;-67
2023/08/27 15:48:48;;;;;;;0.60;0.60;;;;;;;42.94;22.52;99570.75;5089634;28;20302;-69
2023/08/27 15:51:15;;;;;;;1.55;1.15;;;;;;;42.55;23.65;99570.38;5092651;28;20665;-68
2023/08/27 15:53:41;;;;;;;0.52;0.52;;;;;;;42.60;23.26;99567.88;5092829;28;20325;-68
2023/08/27 15:56:08;;;;;;;0.60;0.60;;;;;;;41.87;23.75;99559.94;5089018;28;20681;-68
2023/08/27 15:58:35;;;;;;;0.60;0.60;;;;;;;42.43;23.66;99567.31;5093334;28;20262;-69
2023/08/27 16:01:03;;;;;;;0.60;0.60;;;;;;;43.23;22.68;99575.22;5084544;28;20205;-67
2023/08/27 16:03:31;;;;;;;0.57;0.57;;;;;;;43.40;21.85;99571.16;5093468;28;20288;-68
2023/08/27 16:05:58;;;;;;;0.60;0.60;;;;;;;43.30;23.37;99554.25;5093075;28;20635;-69
2023/08/27 16:08:24;;;;;;;0.60;0.60;;;;;;;43.32;22.90;99576.72;5078824;28;20282;-68
2023/08/27 16:10:51;;;;;;;0.60;0.60;;;;;;;43.14;23.34;99572.81;5091069;28;20194;-69
2023/08/27 16:13:18;;;;;;;0.90;0.90;;;;;;;42.87;23.23;99579.94;5089296;28;20247;-68
2023/08/27 16:15:48;;;;;;;0.75;0.75;;;;;;;41.54;24.25;99579.38;5093203;28;20694;-67
2023/08/27 16:18:15;;;;;;;0.75;0.75;;;;;;;40.18;25.65;99570.44;5092082;28;20680;-69
2023/08/27 16:20:44;;;;;;;0.77;0.77;;;;;;;39.45;26.22;99559.84;5084741;28;20639;-68
2023/08/27 16:23:11;;;;;;;1.10;1.00;;;;;;;38.28;27.31;99578.25;5085340;28;20198;-69
2023/08/27 16:25:38;;;;;;;0.70;0.70;;;;;;;37.17;29.40;99571.13;5092954;28;20205;-67
2023/08/27 16:28:05;;;;;;;0.68;0.68;;;;;;;36.65;30.33;99564.78;5092336;28;20217;-67
2023/08/27 16:30:32;;;;;;;0.60;0.60;;;;;;;36.08;31.28;99565.19;5087696;28;20238;-67
2023/08/27 16:32:59;;;;;;;0.73;0.73;;;;;;;35.50;31.83;99565.41;5086452;28;20202;-67
2023/08/27 16:35:26;;;;;;;0.80;0.80;;;;;;;34.91;32.83;99563.00;5082368;28;20190;-67
2023/08/27 16:37:54;;;;;;;0.63;0.63;;;;;;;34.70;32.79;99560.47;5039842;28;20208;-68
2023/08/27 16:40:21;;;;;;;0.70;0.70;;;;;;;34.50;33.56;99564.13;5087468;28;20665;-67
2023/08/27 16:42:48;;;;;;;0.70;0.70;;;;;;;34.10;34.33;99549.91;5088476;28;20204;-67
2023/08/27 16:45:15;;;;;;;1.30;1.27;;;;;;;33.91;34.87;99561.47;5084689;28;20209;-68
2023/08/27 16:47:43;;;;;;;0.60;0.60;;;;;;;33.72;35.74;99567.63;5040899;28;20258;-68
2023/08/27 16:50:11;;;;;;;0.88;0.88;;;;;;;33.37;36.24;99564.47;5092459;28;20201;-67
2023/08/27 16:52:37;;;;;;;0.55;0.55;;;;;;;33.12;37.16;99559.53;5085883;28;20201;-68
2023/08/27 16:55:06;;;;;;;1.00;1.00;;;;;;;32.97;36.94;99560.81;5079566;28;20601;-67
2023/08/27 16:57:33;;;;;;;0.70;0.70;;;;;;;32.72;37.24;99565.59;5086198;28;20225;-68
2023/08/27 16:59:59;;;;;;;0.55;0.55;;;;;;;32.51;38.35;99567.38;5087849;28;20210;-67
2023/08/27 17:02:26;;;;;;;0.60;0.60;;;;;;;32.40;38.52;99544.09;5088017;28;20734;-67
2023/08/27 17:04:53;;;;;;;0.70;0.70;;;;;;;32.49;38.74;99563.97;5087723;28;20193;-66
2023/08/27 17:07:20;;;;;;;0.70;0.70;;;;;;;32.24;38.59;99534.78;5087978;28;20445;-67
2023/08/27 17:09:46;;;;;;;0.70;0.70;;;;;;;32.17;39.54;99572.03;5088939;28;20666;-68
2023/08/27 17:12:14;;;;;;;0.60;0.60;;;;;;;32.02;39.19;99569.69;5078340;28;20213;-68
2023/08/27 17:14:41;;;;;;;0.65;0.65;;;;;;;31.79;39.66;99572.41;5079791;28;20226;-68
2023/08/27 17:17:08;;;;;;;0.77;0.77;;;;;;;31.71;39.66;99566.81;5086693;28;20198;-69
2023/08/27 17:19:36;;;;;;;0.70;0.70;;;;;;;31.56;40.25;99572.53;5042815;28;20198;-68
2023/08/27 17:22:03;;;;;;;0.70;0.70;;;;;;;31.53;40.35;99570.13;5079562;28;20260;-69
2023/08/27 17:24:30;;;;;;;0.80;0.80;;;;;;;31.27;41.75;99561.41;5086649;28;20666;-68
2023/08/27 17:26:57;;;;;;;0.50;0.50;;;;;;;30.80;40.48;99490.09;5077996;28;20218;-68
2023/08/27 17:29:25;;;;;;;1.33;1.05;;;;;;;31.22;41.21;99579.66;5084586;28;20225;-69
2023/08/27 17:31:52;;;;;;;0.55;0.55;;;;;;;31.01;42.09;99575.97;5091560;28;20622;-68
2023/08/27 17:34:18;;;;;;;0.88;0.88;;;;;;;30.98;42.44;99575.25;5036452;28;20669;-68
2023/08/27 17:36:45;;;;;;;0.70;0.70;;;;;;;30.88;42.09;99581.41;5087918;28;20193;-68
2023/08/27 17:39:12;;;;;;;1.33;1.02;;;;;;;30.59;42.21;99554.16;5045711;28;20213;-69
2023/08/27 17:41:48;;;;;;;0.60;0.60;;;;;;;30.81;41.96;99570.31;5089002;28;20209;-68
2023/08/27 17:44:15;;;;;;;1.13;1.02;;;;;;;30.71;42.45;99596.09;5087042;28;20594;-68
2023/08/27 17:46:43;;;;;;;1.10;1.10;;;;;;;30.71;42.93;99593.41;5089783;28;20205;-69
2023/08/27 17:49:10;;;;;;;1.15;1.05;;;;;;;30.61;42.39;99578.97;5083416;28;20218;-69
2023/08/27 17:51:37;;;;;;;0.70;0.70;;;;;;;30.71;42.80;99596.09;5089392;28;20208;-69
2023/08/27 17:54:05;;;;;;;0.80;0.80;;;;;;;30.71;41.94;99605.94;5085274;28;20237;-68
2023/08/27 17:56:32;;;;;;;1.08;1.08;;;;;;;30.84;42.66;99606.69;5034042;28;20337;-68
2023/08/27 17:58:59;;;;;;;0.88;0.88;;;;;;;30.65;43.68;99588.50;5033715;28;20213;-67
2023/08/27 18:01:26;;;;;;;0.80;0.80;;;;;;;30.56;44.51;99618.63;5082781;28;20202;-67
2023/08/27 18:03:54;;;;;;;1.00;1.00;;;;;;;30.54;44.92;99622.41;5082296;28;20629;-68
2023/08/27 18:06:21;;;;;;;0.60;0.60;;;;;;;30.36;45.34;99621.88;5083339;28;20276;-68
2023/08/27 18:08:48;;;;;;;0.77;0.77;;;;;;;30.10;46.91;99620.28;5085946;28;20224;-68
2023/08/27 18:11:15;;;;;;;0.75;0.75;;;;;;;29.80;47.66;99585.88;5088085;28;20198;-69
2023/08/27 18:13:41;;;;;;;2.70;2.53;;;;;;;30.06;48.11;99627.69;5084351;28;20598;-66
2023/08/27 18:16:08;;;;;;;0.85;0.85;;;;;;;30.05;47.62;99627.78;5077288;28;20202;-67
2023/08/27 18:18:35;;;;;;;0.75;0.75;;;;;;;30.05;48.26;99622.41;5073940;28;20206;-69
2023/08/27 18:21:04;;;;;;;0.80;0.80;;;;;;;30.01;48.14;99625.31;5088333;28;20893;-68
2023/08/27 18:23:31;;;;;;;1.23;1.23;;;;;;;29.89;47.31;99628.03;5080822;28;20328;-67
2023/08/27 18:26:04;;;;;;;0.63;0.63;;;;;;;29.92;48.12;99628.69;5081978;28;20241;-67
2023/08/27 18:28:31;;;;;;;1.00;1.00;;;;;;;29.85;48.04;99627.41;5085721;28;20760;-69
2023/08/27 18:30:57;;;;;;;0.70;0.70;;;;;;;29.77;47.72;99628.88;5088650;28;20220;-67
2023/08/27 18:33:25;;;;;;;0.80;0.80;;;;;;;29.73;46.38;99614.88;5081637;28;20202;-67